Time;durP1;ratioP1;P1;durP2;ratioP2;P2;SDS_P1;SDS_P2;PMS_P1;PMS_P2;Temp;Humidity;BMP_temperature;BMP_pressure;BME280_temperature;BME280_humidity;BME280_pressure;Samples;Min_cycle;Max_cycle;Signal;HPM_P1;HPM_P2
2021/10/25 00:00:11;;;;;;;1999.90;999.90;;;;;;;4.52;46.52;101744.06;4987433;28;96999;-68
2021/10/25 00:02:39;;;;;;;1999.90;999.90;;;;;;;4.50;46.35;101737.78;4989314;28;97264;-69
2021/10/25 00:05:07;;;;;;;1999.90;999.90;;;;;;;4.49;46.30;101746.50;4969753;28;99624;-69
2021/10/25 00:07:35;;;;;;;1999.90;999.90;;;;;;;4.46;46.61;101746.31;4984956;28;98527;-69
2021/10/25 00:10:05;;;;;;;1999.90;999.90;;;;;;;4.45;46.46;101740.13;4987466;28;96966;-70
2021/10/25 00:12:32;;;;;;;1999.90;999.90;;;;;;;4.48;46.37;101745.59;4972225;28;97452;-69
2021/10/25 00:15:01;;;;;;;1999.90;999.90;;;;;;;4.48;46.31;101739.44;4983036;28;98667;-69
2021/10/25 00:17:28;;;;;;;1999.90;999.90;;;;;;;4.40;46.47;101736.31;4983539;28;100479;-68
2021/10/25 00:19:56;;;;;;;1999.90;999.90;;;;;;;4.42;46.66;101734.69;4989272;28;97062;-69
2021/10/25 00:22:24;;;;;;;1999.90;999.90;;;;;;;4.38;46.54;101742.31;4986278;28;96829;-69
2021/10/25 00:24:51;;;;;;;1999.90;999.90;;;;;;;4.32;46.71;101737.56;4983629;28;97591;-68
2021/10/25 00:27:20;;;;;;;1999.90;999.90;;;;;;;4.42;46.40;101745.22;4988368;28;97643;-69
2021/10/25 00:29:49;;;;;;;1999.90;999.90;;;;;;;4.57;46.02;101735.59;4987113;28;97281;-68
2021/10/25 00:32:17;;;;;;;1999.90;999.90;;;;;;;4.85;45.02;101711.78;4984329;28;97044;-68
2021/10/25 00:34:45;;;;;;;1999.90;999.90;;;;;;;4.65;45.66;101733.41;4968094;28;97707;-68
2021/10/25 00:37:12;;;;;;;1999.90;999.90;;;;;;;4.81;45.13;101725.63;4987080;28;99726;-67
2021/10/25 00:39:40;;;;;;;1999.90;999.90;;;;;;;4.75;44.99;101725.25;4982989;28;97033;-69
2021/10/25 00:42:09;;;;;;;1999.90;999.90;;;;;;;4.76;45.18;101727.06;4982426;28;98469;-69
2021/10/25 00:44:38;;;;;;;1999.90;999.90;;;;;;;4.72;45.28;101719.78;4967893;28;100139;-68
2021/10/25 00:47:06;;;;;;;1999.90;999.90;;;;;;;4.42;45.91;101723.22;4989397;28;98573;-69
2021/10/25 00:49:34;;;;;;;1999.90;999.90;;;;;;;4.30;46.13;101728.66;4986861;28;96955;-69
2021/10/25 00:52:03;;;;;;;1999.90;999.90;;;;;;;4.30;46.30;101727.78;4989999;28;98194;-69
2021/10/25 00:54:35;;;;;;;1999.90;999.90;;;;;;;4.25;46.35;101727.47;4985751;28;100425;-68
2021/10/25 00:57:04;;;;;;;1999.90;999.90;;;;;;;4.30;46.34;101725.13;4979810;28;97477;-69
2021/10/25 00:59:32;;;;;;;1999.90;999.90;;;;;;;4.29;46.19;101725.94;4982350;28;97733;-69
2021/10/25 01:02:01;;;;;;;1999.90;999.90;;;;;;;4.29;46.11;101723.28;4987102;28;96859;-69
2021/10/25 01:04:30;;;;;;;1999.90;999.90;;;;;;;4.36;46.14;101722.84;4969945;28;99300;-69
2021/10/25 01:06:57;;;;;;;1999.90;999.90;;;;;;;4.05;46.76;101718.34;4969019;28;98974;-69
2021/10/25 01:09:26;;;;;;;1999.90;999.90;;;;;;;4.01;46.78;101713.69;4971211;28;96992;-69
2021/10/25 01:11:53;;;;;;;1999.90;999.90;;;;;;;3.98;46.77;101724.06;4987047;28;97217;-70
2021/10/25 01:14:21;;;;;;;1999.90;999.90;;;;;;;4.01;46.92;101720.69;4984694;28;97791;-68
2021/10/25 01:16:49;;;;;;;1999.90;999.90;;;;;;;3.94;46.97;101716.78;4981395;28;100293;-69
2021/10/25 01:19:18;;;;;;;1999.90;999.90;;;;;;;3.95;46.96;101723.84;4968205;28;97857;-67
2021/10/25 01:21:48;;;;;;;1999.90;999.90;;;;;;;3.95;47.03;101726.47;4966881;28;97689;-68
2021/10/25 01:24:16;;;;;;;1999.90;999.90;;;;;;;3.96;46.70;101723.03;4988133;28;99024;-67
2021/10/25 01:26:43;;;;;;;1999.90;999.90;;;;;;;3.98;46.94;101716.16;4966907;28;100528;-68
2021/10/25 01:29:11;;;;;;;1999.90;999.90;;;;;;;3.96;46.56;101724.75;4987815;28;97091;-69
2021/10/25 01:31:39;;;;;;;1999.90;999.90;;;;;;;3.95;46.59;101713.31;4969200;28;96962;-69
2021/10/25 01:34:07;;;;;;;1999.90;999.90;;;;;;;3.85;46.74;101710.94;4988181;28;98790;-70
2021/10/25 01:36:36;;;;;;;1999.90;999.90;;;;;;;3.98;46.36;101703.00;4984573;28;99053;-69
2021/10/25 01:39:05;;;;;;;1999.90;999.90;;;;;;;4.00;46.59;101706.63;4986636;28;96928;-69
2021/10/25 01:41:33;;;;;;;1999.90;999.90;;;;;;;3.98;46.51;101705.63;4984019;28;96817;-68
2021/10/25 01:44:09;;;;;;;1999.90;999.90;;;;;;;3.97;46.45;101705.53;4966070;28;99919;-69
2021/10/25 01:46:37;;;;;;;1999.90;999.90;;;;;;;3.98;46.72;101703.00;4967045;28;100410;-70
2021/10/25 01:49:06;;;;;;;1999.90;999.90;;;;;;;3.99;46.46;101704.78;4966603;28;97034;-69
2021/10/25 01:51:35;;;;;;;1999.90;999.90;;;;;;;4.03;46.19;101704.16;4986852;28;97076;-69
2021/10/25 01:54:04;;;;;;;1999.90;999.90;;;;;;;3.95;46.16;101708.03;4968941;28;98476;-69
2021/10/25 01:56:33;;;;;;;1999.90;999.90;;;;;;;3.93;46.61;101701.75;4974908;28;99357;-68
2021/10/25 01:59:01;;;;;;;1999.90;999.90;;;;;;;3.87;46.33;101698.78;4972418;28;97268;-67
2021/10/25 02:01:29;;;;;;;1999.90;999.90;;;;;;;3.81;46.39;101695.75;4970225;28;100440;-68
2021/10/25 02:03:58;;;;;;;1999.90;999.90;;;;;;;3.81;46.39;101690.47;4984870;28;98129;-69
2021/10/25 02:06:28;;;;;;;1999.90;999.90;;;;;;;3.84;46.25;101698.56;4967383;28;98734;-69
2021/10/25 02:08:57;;;;;;;1999.90;999.90;;;;;;;3.82;46.71;101692.31;4987477;28;97990;-69
2021/10/25 02:11:26;;;;;;;1999.90;999.90;;;;;;;3.81;46.25;101687.84;4987917;28;97957;-68
2021/10/25 02:13:58;;;;;;;1999.90;999.90;;;;;;;3.78;46.37;101687.66;4969486;28;98552;-68
2021/10/25 02:16:27;;;;;;;1999.90;999.90;;;;;;;3.76;46.54;101689.28;4987642;28;98994;-68
2021/10/25 02:18:55;;;;;;;1999.90;999.90;;;;;;;3.77;46.71;101685.84;4987526;28;97318;-68
2021/10/25 02:21:40;;;;;;;1999.90;999.90;;;;;;;3.75;46.54;101687.47;4972338;28;96751;-67
2021/10/25 02:24:07;;;;;;;1999.90;999.90;;;;;;;3.72;46.47;101687.28;4973436;28;99220;-68
2021/10/25 02:26:40;;;;;;;1999.90;999.90;;;;;;;3.77;46.29;101690.22;4971851;28;99015;-68
2021/10/25 02:29:09;;;;;;;1999.90;999.90;;;;;;;3.78;46.64;101685.03;4979118;28;98709;-69
2021/10/25 02:31:38;;;;;;;1999.90;999.90;;;;;;;3.82;46.22;101679.16;4980268;28;98023;-68
2021/10/25 02:34:05;;;;;;;1999.90;999.90;;;;;;;3.72;46.63;101682.00;4984659;28;99284;-68
2021/10/25 02:36:33;;;;;;;1999.90;999.90;;;;;;;3.72;46.79;101676.75;4986675;28;99118;-69
2021/10/25 02:39:07;;;;;;;1999.90;999.90;;;;;;;3.95;45.83;101672.94;4970196;28;96986;-69
2021/10/25 02:41:37;;;;;;;1999.90;999.90;;;;;;;3.96;45.86;101675.66;4988591;28;97506;-67
2021/10/25 02:44:06;;;;;;;1999.90;999.90;;;;;;;3.88;45.79;101679.50;4971421;28;99054;-67
2021/10/25 02:46:34;;;;;;;1999.90;999.90;;;;;;;3.87;45.81;101680.34;4965909;28;100846;-70
2021/10/25 02:49:01;;;;;;;1999.90;999.90;;;;;;;3.82;45.96;101676.53;4971801;28;96885;-68
2021/10/25 02:51:29;;;;;;;1999.90;999.90;;;;;;;3.74;46.09;101680.38;4970860;28;96944;-68
2021/10/25 02:53:58;;;;;;;1999.90;999.90;;;;;;;3.81;45.80;101677.31;4971771;28;96996;-69
2021/10/25 02:56:35;;;;;;;1999.90;999.90;;;;;;;3.84;45.91;101673.97;4969355;28;98899;-69
2021/10/25 02:59:08;;;;;;;1999.90;999.90;;;;;;;3.76;46.04;101673.50;4972275;28;96953;-69
2021/10/25 03:01:40;;;;;;;1999.90;999.90;;;;;;;3.80;45.82;101666.69;4988226;28;97146;-68
2021/10/25 03:04:10;;;;;;;1999.90;999.90;;;;;;;3.73;45.78;101667.13;4987455;28;99247;-69
2021/10/25 03:06:38;;;;;;;1999.90;999.90;;;;;;;3.64;46.26;101662.16;4972256;28;100634;-69
2021/10/25 03:09:08;;;;;;;1999.90;999.90;;;;;;;3.80;45.64;101666.69;4989919;28;96899;-68
2021/10/25 03:11:38;;;;;;;1999.90;999.90;;;;;;;3.61;45.83;101669.88;4971077;28;96865;-67
2021/10/25 03:14:05;;;;;;;1999.90;999.90;;;;;;;3.63;46.31;101670.88;4967244;28;97619;-69
2021/10/25 03:16:48;;;;;;;1999.90;999.90;;;;;;;3.45;46.82;101669.72;4987655;28;98997;-69
2021/10/25 03:19:15;;;;;;;1999.90;999.90;;;;;;;3.39;46.27;101666.69;4981890;28;96976;-67
2021/10/25 03:21:43;;;;;;;1999.90;999.90;;;;;;;3.34;46.93;101675.09;4966792;28;96837;-69
2021/10/25 03:24:11;;;;;;;1999.90;999.90;;;;;;;3.29;46.83;101666.91;4970110;28;100608;-68
2021/10/25 03:26:39;;;;;;;1999.90;999.90;;;;;;;3.23;46.59;101671.78;4985024;28;98955;-71
2021/10/25 03:29:07;;;;;;;1999.90;999.90;;;;;;;3.22;46.72;101665.59;4966761;28;96727;-68
2021/10/25 03:31:34;;;;;;;1999.90;999.90;;;;;;;3.21;46.62;101665.50;4969906;28;97106;-68
2021/10/25 03:34:05;;;;;;;1999.90;999.90;;;;;;;3.17;46.62;101663.47;4968795;28;101386;-68
2021/10/25 03:36:35;;;;;;;1999.90;999.90;;;;;;;3.20;47.16;101661.06;4986170;28;97957;-69
2021/10/25 03:39:04;;;;;;;1999.90;999.90;;;;;;;3.30;46.73;101662.53;4983638;28;96980;-67
2021/10/25 03:41:42;;;;;;;1999.90;999.90;;;;;;;3.72;45.64;101650.44;4987437;28;97222;-68
2021/10/25 03:44:13;;;;;;;1999.90;999.90;;;;;;;3.52;45.97;101653.50;4986905;28;97625;-66
2021/10/25 03:46:43;;;;;;;1999.90;999.90;;;;;;;3.44;46.33;101656.47;4968409;28;99689;-71
2021/10/25 03:49:16;;;;;;;1999.90;999.90;;;;;;;3.46;45.85;101650.47;4986889;28;96834;-72
2021/10/25 03:52:10;;;;;;;1999.90;999.90;;;;;;;3.34;46.41;101652.34;4982891;28;97344;-71
2021/10/25 03:54:47;;;;;;;1999.90;999.90;;;;;;;3.28;46.15;101654.56;4984101;28;98046;-71
2021/10/25 03:57:42;;;;;;;1999.90;999.90;;;;;;;3.26;46.45;101642.16;5005814;28;98931;-71
2021/10/25 04:26:24;;;;;;;1999.90;999.90;;;;;;;2.86;46.64;101630.75;4984706;28;96917;-71
2021/10/25 04:28:52;;;;;;;1999.90;999.90;;;;;;;2.78;47.01;101629.34;4982840;28;97938;-70
2021/10/25 04:31:20;;;;;;;1999.90;999.90;;;;;;;2.82;46.89;101634.88;4966885;28;100619;-69
2021/10/25 04:33:55;;;;;;;1999.90;999.90;;;;;;;2.73;47.43;101626.41;4976950;28;96842;-69
2021/10/25 04:36:46;;;;;;;1999.90;999.90;;;;;;;2.79;47.52;101636.41;4980517;28;97246;-70
2021/10/25 04:39:44;;;;;;;1999.90;999.90;;;;;;;2.75;47.48;101634.38;4972758;28;97730;-70
2021/10/25 04:42:16;;;;;;;1999.90;999.90;;;;;;;2.76;47.33;101628.34;4965014;28;100716;-69
2021/10/25 04:44:44;;;;;;;1999.90;999.90;;;;;;;2.80;47.21;101628.63;4965763;28;96828;-69
2021/10/25 04:47:12;;;;;;;1999.90;999.90;;;;;;;2.76;47.27;101633.59;4980954;28;96851;-69
2021/10/25 04:49:40;;;;;;;1999.90;999.90;;;;;;;2.75;47.12;101622.16;4968068;28;99282;-69
2021/10/25 04:52:37;;;;;;;1999.90;999.90;;;;;;;2.68;47.02;101621.66;4984733;28;97746;-70
2021/10/25 04:55:07;;;;;;;1999.90;999.90;;;;;;;2.80;47.04;101622.47;4987544;28;97114;-70
2021/10/25 04:57:35;;;;;;;1999.90;999.90;;;;;;;3.11;46.18;101607.88;4987543;28;96784;-70
2021/10/25 05:00:04;;;;;;;1999.90;999.90;;;;;;;2.99;46.24;101609.72;4970879;28;99238;-70
2021/10/25 05:02:31;;;;;;;1999.90;999.90;;;;;;;3.00;46.22;101608.91;4986535;28;97673;-70
2021/10/25 05:05:00;;;;;;;1999.90;999.90;;;;;;;2.96;46.21;101618.31;4987099;28;96745;-70
2021/10/25 05:07:28;;;;;;;1999.90;999.90;;;;;;;2.79;46.50;101618.94;4992093;28;96895;-69
2021/10/25 05:09:57;;;;;;;1999.90;999.90;;;;;;;2.65;46.54;101616.22;4964404;28;99622;-70
2021/10/25 05:12:26;;;;;;;1999.90;999.90;;;;;;;2.69;46.70;101615.63;4986215;28;97530;-70
2021/10/25 05:14:54;;;;;;;1999.90;999.90;;;;;;;2.63;46.86;101618.75;4967944;28;97145;-70
2021/10/25 05:17:22;;;;;;;1999.90;999.90;;;;;;;2.64;47.21;101617.00;4982721;28;97961;-70
2021/10/25 05:19:53;;;;;;;1999.90;999.90;;;;;;;2.54;47.82;101614.59;4961394;28;101617;-72
2021/10/25 05:22:26;;;;;;;1999.90;999.90;;;;;;;2.54;47.31;101614.59;4986520;28;98684;-72
2021/10/25 05:24:56;;;;;;;1999.90;999.90;;;;;;;2.56;46.90;101613.91;4988173;28;97142;-71
2021/10/25 05:27:25;;;;;;;1999.90;999.90;;;;;;;2.56;46.88;101618.22;4985507;28;97255;-70
2021/10/25 05:29:53;;;;;;;1999.90;999.90;;;;;;;2.53;47.21;101618.03;4987308;28;99483;-72
2021/10/25 05:32:21;;;;;;;1999.90;999.90;;;;;;;2.46;47.82;101613.16;4967486;28;99256;-71
2021/10/25 05:34:49;;;;;;;1999.90;999.90;;;;;;;2.46;47.13;101613.16;4965072;28;97798;-71
2021/10/25 05:37:17;;;;;;;1999.90;999.90;;;;;;;2.47;47.36;101609.75;4978977;28;97173;-71
2021/10/25 05:39:45;;;;;;;1999.90;999.90;;;;;;;2.71;46.76;101598.22;4971043;28;99480;-71
2021/10/25 05:42:15;;;;;;;1999.90;999.90;;;;;;;2.73;46.39;101602.75;4970604;28;99512;-71
2021/10/25 05:44:45;;;;;;;1999.90;999.90;;;;;;;2.79;46.48;101607.50;4984601;28;97073;-70
2021/10/25 05:47:13;;;;;;;1999.90;999.90;;;;;;;2.64;46.51;101604.78;4963872;28;96848;-71
2021/10/25 05:49:41;;;;;;;1999.90;999.90;;;;;;;2.73;46.51;101602.75;4966850;28;100445;-71
2021/10/25 05:52:10;;;;;;;1999.90;999.90;;;;;;;2.73;46.20;101604.50;4991174;28;98062;-71
2021/10/25 05:54:39;;;;;;;1999.90;999.90;;;;;;;2.63;46.87;101605.59;4967228;28;96892;-71
2021/10/25 05:57:14;;;;;;;1999.90;999.90;;;;;;;2.55;46.93;101592.75;4962996;28;97073;-71
2021/10/25 05:59:42;;;;;;;1999.90;999.90;;;;;;;2.57;47.24;101599.00;4981696;28;98056;-71
2021/10/25 06:02:22;;;;;;;1999.90;999.90;;;;;;;2.48;46.88;101601.03;4972646;28;99447;-71
2021/10/25 06:05:00;;;;;;;1999.90;999.90;;;;;;;2.65;46.34;101589.94;4962205;28;98271;-71
2021/10/25 06:07:29;;;;;;;1999.90;999.90;;;;;;;2.57;46.55;101593.75;4982331;28;97347;-71
2021/10/25 06:09:57;;;;;;;1999.90;999.90;;;;;;;2.57;47.21;101593.75;4963837;28;99302;-71
2021/10/25 06:12:40;;;;;;;1999.90;999.90;;;;;;;2.54;47.04;101588.31;4961958;28;102088;-71
2021/10/25 06:15:39;;;;;;;1999.90;999.90;;;;;;;2.47;47.34;101586.09;4968104;28;98934;-72
2021/10/25 06:18:10;;;;;;;1999.90;999.90;;;;;;;2.46;46.61;101589.50;4953210;28;98860;-71
2021/10/25 06:20:40;;;;;;;1999.90;999.90;;;;;;;2.51;47.54;101593.38;4957935;28;99153;-72
2021/10/25 06:23:16;;;;;;;1999.90;999.90;;;;;;;2.50;47.27;101587.22;4965749;28;99331;-71
2021/10/25 06:25:45;;;;;;;1999.90;999.90;;;;;;;2.45;46.93;101582.47;4962761;28;100632;-71
2021/10/25 06:28:15;;;;;;;1999.90;999.90;;;;;;;2.47;46.61;101592.28;4963169;28;96801;-71
2021/10/25 06:30:57;;;;;;;1999.90;999.90;;;;;;;2.49;47.13;101600.25;4981211;28;97775;-71
2021/10/25 06:33:42;;;;;;;1999.90;999.90;;;;;;;2.58;46.81;101600.84;4976320;28;98945;-71
2021/10/25 06:36:30;;;;;;;1999.90;999.90;;;;;;;2.68;46.33;101601.56;4979142;28;98858;-71
2021/10/25 06:39:21;;;;;;;1999.90;999.90;;;;;;;2.72;46.24;101605.28;4965968;28;98486;-71
2021/10/25 06:41:53;;;;;;;1999.90;999.90;;;;;;;2.67;46.79;101601.47;4972998;28;98776;-69
2021/10/25 06:44:50;;;;;;;1999.90;999.90;;;;;;;2.72;46.97;101600.03;4981478;28;100767;-71
2021/10/25 06:47:22;;;;;;;1999.90;999.90;;;;;;;2.69;46.91;101605.09;4967887;28;96851;-72
2021/10/25 06:49:51;;;;;;;1999.90;999.90;;;;;;;2.60;46.57;101601.88;4985497;28;96945;-68
2021/10/25 06:52:20;;;;;;;1999.90;999.90;;;;;;;3.14;45.38;101602.81;4972744;28;99151;-69
2021/10/25 06:54:48;;;;;;;1999.90;999.90;;;;;;;3.21;45.65;101605.00;4989365;28;96812;-69
2021/10/25 06:57:16;;;;;;;1999.90;999.90;;;;;;;3.05;45.31;101603.16;4965096;28;96831;-68
2021/10/25 06:59:49;;;;;;;1999.90;999.90;;;;;;;2.97;46.27;101608.69;4989205;28;96897;-69
2021/10/25 07:02:17;;;;;;;1999.90;999.90;;;;;;;3.19;45.27;101611.91;5009028;28;97779;-69
2021/10/25 07:04:49;;;;;;;1999.90;999.90;;;;;;;3.19;45.91;101619.78;4982717;28;99201;-69
2021/10/25 07:07:23;;;;;;;1999.90;999.90;;;;;;;3.04;45.85;101624.03;5007405;28;97914;-69
2021/10/25 07:09:51;;;;;;;1999.90;999.90;;;;;;;3.14;45.49;101623.84;4969723;28;96826;-68
2021/10/25 07:12:19;;;;;;;1999.90;999.90;;;;;;;3.14;45.68;101629.09;4988636;28;98652;-71
2021/10/25 07:14:50;;;;;;;1999.90;999.90;;;;;;;3.09;45.96;101630.53;4979398;28;97563;-69
2021/10/25 07:17:24;;;;;;;1999.90;999.90;;;;;;;3.35;45.84;101626.94;4983287;28;97188;-69
2021/10/25 07:20:15;;;;;;;1999.90;999.90;;;;;;;3.42;45.56;101627.44;4967069;28;97009;-72
2021/10/25 08:03:25;;;;;;;1999.90;999.90;;;;;;;3.93;45.52;101599.06;4931046;28;98003;-70
2021/10/25 08:05:56;;;;;;;1999.90;999.90;;;;;;;3.90;45.54;101604.16;4957555;28;96972;-70
2021/10/25 08:08:40;;;;;;;1999.90;999.90;;;;;;;4.07;45.35;101611.38;4985789;28;98217;-69
2021/10/25 08:11:09;;;;;;;1999.90;999.90;;;;;;;4.01;45.56;101620.63;4961233;28;100007;-69
2021/10/25 08:13:49;;;;;;;1999.90;999.90;;;;;;;4.41;44.64;101608.13;4983843;28;97749;-71
2021/10/25 08:16:31;;;;;;;1999.90;999.90;;;;;;;4.45;44.39;101610.09;5000280;28;97312;-70
2021/10/25 08:19:13;;;;;;;1999.90;999.90;;;;;;;4.39;44.93;101591.31;4969949;28;99287;-71
2021/10/25 08:21:43;;;;;;;1999.90;999.90;;;;;;;4.38;44.95;101600.94;4996996;28;97554;-68
2021/10/25 08:24:10;;;;;;;1999.90;999.90;;;;;;;4.40;45.05;101601.94;4971820;28;96864;-69
2021/10/25 08:27:01;;;;;;;1999.90;999.90;;;;;;;4.69;44.63;101603.63;4986798;28;96542;-70
2021/10/25 08:29:31;;;;;;;1999.90;999.90;;;;;;;4.58;44.85;101604.72;4967056;28;98705;-69
2021/10/25 08:32:09;;;;;;;1999.90;999.90;;;;;;;4.57;44.78;101600.28;4969394;28;99309;-70
2021/10/25 08:34:47;;;;;;;1999.90;999.90;;;;;;;4.56;44.99;101590.53;4969718;28;97240;-69
2021/10/25 08:40:15;;;;;;;1999.90;999.90;;;;;;;4.67;45.08;101592.06;4953233;28;99345;-69
2021/10/25 08:42:43;;;;;;;1999.90;999.90;;;;;;;4.73;45.02;101587.16;4967959;28;99386;-70
2021/10/25 08:45:17;;;;;;;1999.90;999.90;;;;;;;4.78;44.85;101586.59;4985691;28;96957;-69
2021/10/25 08:47:49;;;;;;;1999.90;999.90;;;;;;;4.84;44.88;101596.59;4978562;28;97005;-68
2021/10/25 08:50:19;;;;;;;1999.90;999.90;;;;;;;5.08;44.58;101590.13;4983874;28;96782;-68
2021/10/25 08:52:47;;;;;;;1999.90;999.90;;;;;;;5.38;44.15;101581.22;4969682;28;99373;-70
2021/10/25 08:55:18;;;;;;;1999.90;999.90;;;;;;;5.63;43.53;101583.47;4985944;28;96922;-69
2021/10/25 08:57:47;;;;;;;1999.90;999.90;;;;;;;5.28;44.45;101584.22;4985005;28;97357;-70
2021/10/25 09:00:21;;;;;;;1999.90;999.90;;;;;;;5.27;44.46;101587.66;4984833;28;100695;-69
2021/10/25 09:03:07;;;;;;;1999.90;999.90;;;;;;;5.31;44.44;101588.72;4984971;28;99201;-70
2021/10/25 09:05:35;;;;;;;1999.90;999.90;;;;;;;5.37;44.57;101589.06;4964070;28;97551;-69
2021/10/25 09:08:06;;;;;;;1999.90;999.90;;;;;;;5.50;44.58;101592.47;4982000;28;96906;-68
2021/10/25 09:10:43;;;;;;;1999.90;999.90;;;;;;;5.59;44.38;101585.06;4969017;28;98132;-69
2021/10/25 09:13:16;;;;;;;1999.90;999.90;;;;;;;6.12;43.31;101578.19;4961445;28;99259;-70
2021/10/25 09:15:52;;;;;;;1999.90;999.90;;;;;;;5.77;44.25;101578.09;4961961;28;96765;-70
2021/10/25 09:18:45;;;;;;;1999.90;999.90;;;;;;;5.81;44.03;101580.06;4975882;28;97519;-69
2021/10/25 09:21:17;;;;;;;1999.90;999.90;;;;;;;5.83;44.37;101564.31;4960258;28;98576;-69
2021/10/25 09:23:46;;;;;;;1999.90;999.90;;;;;;;5.86;44.43;101577.69;4959274;28;98889;-69
2021/10/25 09:26:16;;;;;;;1999.90;999.90;;;;;;;6.00;43.89;101584.59;4978707;28;97696;-70
2021/10/25 09:28:48;;;;;;;1999.90;999.90;;;;;;;6.05;44.05;101586.63;4979938;28;97196;-68
2021/10/25 09:31:23;;;;;;;1999.90;999.90;;;;;;;6.10;44.31;101586.88;4959587;28;100635;-68
2021/10/25 09:33:52;;;;;;;1999.90;999.90;;;;;;;6.18;44.28;101583.81;4978276;28;97535;-70
2021/10/25 09:36:30;;;;;;;1999.90;999.90;;;;;;;6.26;43.94;101589.50;4962167;28;98101;-69
2021/10/25 09:39:05;;;;;;;1999.90;999.90;;;;;;;6.34;44.03;101585.53;4977784;28;99706;-69
2021/10/25 09:42:09;;;;;;;1999.90;999.90;;;;;;;6.44;43.72;101593.09;4977127;28;97649;-69
2021/10/25 09:50:21;;;;;;;1999.90;999.90;;;;;;;6.76;43.27;101579.72;4964300;28;96896;-70
2021/10/25 09:52:54;;;;;;;1999.90;999.90;;;;;;;6.77;43.39;101584.22;4961457;28;100274;-69
2021/10/25 09:55:22;;;;;;;1999.90;999.90;;;;;;;6.89;43.20;101581.25;4977102;28;96828;-71
2021/10/25 09:58:04;;;;;;;1999.90;999.90;;;;;;;6.94;43.75;101577.97;4959766;28;96817;-69
2021/10/25 10:00:32;;;;;;;1999.90;999.90;;;;;;;6.98;43.33;101568.47;4979083;28;98336;-70
2021/10/25 10:03:02;;;;;;;1999.90;999.90;;;;;;;7.00;43.31;101561.47;4981539;28;98158;-70
2021/10/25 10:05:45;;;;;;;1999.90;999.90;;;;;;;7.17;43.07;101561.47;4967014;28;99176;-71
2021/10/25 10:08:13;;;;;;;1999.90;999.90;;;;;;;7.16;42.83;101557.00;4970472;28;97037;-70
2021/10/25 10:10:41;;;;;;;1999.90;999.90;;;;;;;7.15;43.32;101572.81;4967252;28;98572;-70
2021/10/25 10:13:19;;;;;;;1999.90;999.90;;;;;;;7.20;43.38;101571.28;4984018;28;98810;-69
2021/10/25 10:16:01;;;;;;;1999.90;999.90;;;;;;;7.30;43.24;101572.63;4969819;28;99302;-69
2021/10/25 10:18:33;;;;;;;1999.90;999.90;;;;;;;7.39;43.12;101568.66;4965339;28;96916;-69
2021/10/25 10:21:17;;;;;;;1999.90;999.90;;;;;;;7.50;42.68;101567.47;4983432;28;97346;-71
2021/10/25 10:23:53;;;;;;;1999.90;999.90;;;;;;;7.53;43.02;101567.59;5002427;28;98825;-69
2021/10/25 10:26:21;;;;;;;1999.90;999.90;;;;;;;7.76;42.28;101573.94;4979091;28;97129;-71
2021/10/25 10:28:52;;;;;;;1999.90;999.90;;;;;;;7.79;42.41;101579.38;4965484;28;96790;-69
2021/10/25 10:31:24;;;;;;;1999.90;999.90;;;;;;;7.81;42.49;101578.63;4980497;28;98450;-69
2021/10/25 10:34:25;;;;;;;1999.90;999.90;;;;;;;7.79;42.92;101574.06;4963969;28;100222;-69
2021/10/25 10:36:55;;;;;;;1999.90;999.90;;;;;;;7.94;42.57;101583.63;4963403;28;98738;-69
2021/10/25 10:39:39;;;;;;;1999.90;999.90;;;;;;;7.94;42.62;101583.63;4964834;28;97414;-68
2021/10/25 10:42:27;;;;;;;1999.90;999.90;;;;;;;8.02;42.66;101571.59;4981555;28;96709;-68
2021/10/25 10:45:03;;;;;;;1999.90;999.90;;;;;;;8.20;42.33;101579.47;4980974;28;97614;-69
2021/10/25 10:47:40;;;;;;;1999.90;999.90;;;;;;;8.12;42.57;101579.13;4963442;28;99891;-68
2021/10/25 10:50:21;;;;;;;1999.90;999.90;;;;;;;8.17;42.91;101577.56;4979185;28;96880;-69
2021/10/25 10:52:58;;;;;;;1999.90;999.90;;;;;;;8.15;42.97;101578.34;4963093;28;98766;-70
2021/10/25 10:55:27;;;;;;;1999.90;999.90;;;;;;;8.22;42.55;101575.13;4979367;28;97666;-70
2021/10/25 11:00:35;;;;;;;1999.90;999.90;;;;;;;8.30;42.60;101563.09;4982111;28;97311;-70
2021/10/25 11:03:13;;;;;;;1999.90;999.90;;;;;;;8.37;42.52;101556.31;4979337;28;97921;-70
2021/10/25 11:05:44;;;;;;;1999.90;999.90;;;;;;;8.36;42.52;101557.16;4980009;28;99455;-69
2021/10/25 11:08:16;;;;;;;1999.90;999.90;;;;;;;8.54;42.22;101555.28;4996639;28;100654;-69
2021/10/25 11:10:46;;;;;;;1999.90;999.90;;;;;;;8.50;42.44;101563.97;4978755;28;98726;-70
2021/10/25 11:13:17;;;;;;;1999.90;999.90;;;;;;;8.64;42.47;101558.38;4983152;28;96926;-69
2021/10/25 11:15:53;;;;;;;1999.90;999.90;;;;;;;8.83;42.05;101568.00;4980716;28;97873;-69
2021/10/25 11:18:29;;;;;;;1999.90;999.90;;;;;;;8.91;42.07;101561.28;4979851;28;96999;-71
2021/10/25 11:21:09;;;;;;;1999.90;999.90;;;;;;;8.87;42.10;101546.97;4982345;28;96834;-70
2021/10/25 11:23:40;;;;;;;1999.90;999.90;;;;;;;8.80;42.35;101549.31;4981951;28;98192;-68
2021/10/25 11:26:14;;;;;;;1999.90;999.90;;;;;;;8.81;42.41;101549.38;4962267;28;98858;-71
2021/10/25 11:29:13;;;;;;;1999.90;999.90;;;;;;;8.90;42.87;101543.53;4980415;28;99178;-70
2021/10/25 11:31:42;;;;;;;1999.90;999.90;;;;;;;8.98;42.19;101535.03;4948780;28;97009;-69
2021/10/25 11:34:14;;;;;;;1999.90;999.90;;;;;;;8.87;42.43;101538.09;4982376;28;96788;-68
2021/10/25 11:36:58;;;;;;;1999.90;999.90;;;;;;;8.97;42.67;101525.25;4981539;28;97577;-69
2021/10/25 11:39:28;;;;;;;1999.90;999.90;;;;;;;9.08;42.35;101525.66;4982373;28;98153;-69
2021/10/25 11:41:57;;;;;;;1999.90;999.90;;;;;;;9.14;42.34;101531.22;4979887;28;98041;-69
2021/10/25 11:44:25;;;;;;;1999.90;999.90;;;;;;;9.18;42.47;101525.19;4981436;28;96852;-69
2021/10/25 11:46:52;;;;;;;1999.90;999.90;;;;;;;9.21;42.40;101522.63;4983197;28;97042;-69
2021/10/25 11:49:24;;;;;;;1999.90;999.90;;;;;;;9.30;42.32;101530.97;4983327;28;100790;-69
2021/10/25 11:51:56;;;;;;;1999.90;999.90;;;;;;;9.33;42.18;101523.13;4982671;28;96989;-67
2021/10/25 11:54:24;;;;;;;1999.90;999.90;;;;;;;9.40;42.17;101524.25;4982483;28;97356;-68
2021/10/25 11:56:53;;;;;;;1999.90;999.90;;;;;;;9.56;41.79;101529.31;4980060;28;100669;-68
2021/10/25 11:59:23;;;;;;;1999.90;999.90;;;;;;;9.69;41.60;101515.63;4964492;28;98883;-68
2021/10/25 12:01:52;;;;;;;1999.90;999.90;;;;;;;9.73;41.55;101507.84;5003465;28;97611;-68
2021/10/25 12:04:22;;;;;;;1999.90;999.90;;;;;;;9.75;41.52;101511.47;4965860;28;98389;-72
2021/10/25 12:06:56;;;;;;;1999.90;999.90;;;;;;;9.69;41.64;101516.53;4974945;28;99435;-71
2021/10/25 12:09:31;;;;;;;1999.90;999.90;;;;;;;9.76;41.63;101510.59;4972603;28;98011;-71
2021/10/25 12:12:05;;;;;;;1999.90;999.90;;;;;;;9.79;41.70;101502.72;4977213;28;98326;-71
2021/10/25 12:14:36;;;;;;;1999.90;999.90;;;;;;;9.90;41.53;101496.03;4958815;28;97721;-69
2021/10/25 12:17:04;;;;;;;1999.90;999.90;;;;;;;9.97;41.47;101500.72;4974305;28;99411;-70
2021/10/25 12:19:33;;;;;;;1999.90;999.90;;;;;;;10.07;41.12;101499.28;4975079;28;99658;-70
2021/10/25 12:22:14;;;;;;;1999.90;999.90;;;;;;;10.16;41.08;101492.53;4981147;28;97152;-71
2021/10/25 12:24:44;;;;;;;1999.90;999.90;;;;;;;10.14;41.33;101498.63;4978927;28;98231;-71
2021/10/25 12:27:14;;;;;;;1999.90;999.90;;;;;;;10.25;40.91;101488.38;4985568;28;98919;-71
2021/10/25 12:29:42;;;;;;;1999.90;999.90;;;;;;;10.75;40.19;101491.88;4987833;28;98163;-68
2021/10/25 12:32:12;;;;;;;1999.90;999.90;;;;;;;10.77;40.24;101491.91;4970884;28;96846;-69